createdAt,value
2023-01-08T12:30:40.520Z,14.80
2023-01-08T12:33:24.041Z,10.90
2023-01-08T12:35:52.587Z,13.20
2023-01-08T12:38:22.795Z,13.10
2023-01-08T12:40:52.563Z,14.20
2023-01-08T12:43:24.176Z,13.50
2023-01-08T12:45:52.936Z,13.30
2023-01-08T12:48:21.783Z,13.80
2023-01-08T12:50:59.917Z,16.60
2023-01-08T12:53:35.211Z,14.90
2023-01-08T12:56:13.511Z,14.30
2023-01-08T12:59:04.259Z,13.80
2023-01-08T13:01:34.941Z,15.70
2023-01-08T13:04:02.095Z,8.50
2023-01-08T13:06:28.917Z,15.00
2023-01-08T13:08:55.958Z,13.40
2023-01-08T13:11:25.954Z,14.00
2023-01-08T13:14:02.839Z,16.00
2023-01-08T13:16:32.795Z,13.40
2023-01-08T13:19:02.967Z,14.20
2023-01-08T13:21:33.342Z,12.30
2023-01-08T13:24:21.065Z,15.30
2023-01-08T13:26:47.984Z,13.70
2023-01-08T13:29:42.366Z,14.20
2023-01-08T13:32:26.205Z,12.50
2023-01-08T13:35:16.410Z,12.30
2023-01-08T13:37:44.144Z,12.90
2023-01-08T13:40:39.353Z,14.50
2023-01-08T13:43:11.432Z,11.40
2023-01-08T13:45:38.264Z,14.60
2023-01-08T13:48:05.130Z,12.50
2023-01-08T13:50:32.665Z,12.50
2023-01-08T13:53:03.224Z,12.50
2023-01-08T13:55:37.939Z,14.40
2023-01-08T13:58:09.953Z,15.00
2023-01-08T14:00:42.785Z,9.30
2023-01-08T14:05:51.320Z,13.90
2023-01-08T14:08:23.255Z,15.70
2023-01-08T14:10:51.203Z,14.60
2023-01-08T14:13:18.500Z,14.20
2023-01-08T14:15:45.289Z,13.40
2023-01-08T14:18:13.625Z,14.20
2023-01-08T14:20:41.352Z,12.30
2023-01-08T14:23:13.319Z,12.20
2023-01-08T14:25:43.171Z,13.70
2023-01-08T14:28:14.556Z,11.70
2023-01-08T14:30:54.267Z,10.70
2023-01-08T14:33:24.036Z,9.10
2023-01-08T14:35:51.492Z,10.50
2023-01-08T14:38:18.346Z,11.70
2023-01-08T14:40:47.864Z,11.40
2023-01-08T14:43:15.939Z,9.30
2023-01-08T14:45:50.710Z,10.60
2023-01-08T14:48:41.665Z,9.20
2023-01-08T14:51:10.780Z,10.10
2023-01-08T14:53:41.744Z,10.20
2023-01-08T14:56:12.931Z,9.80
2023-01-08T14:58:41.244Z,11.40
2023-01-08T15:01:15.424Z,11.20
2023-01-08T15:03:46.359Z,12.40
2023-01-08T15:06:24.167Z,10.70
2023-01-08T15:08:50.944Z,9.10
2023-01-08T15:11:25.578Z,11.40
2023-01-08T15:13:53.358Z,10.50
2023-01-08T15:16:29.511Z,10.30
2023-01-08T15:19:07.588Z,12.30
2023-01-08T15:21:34.604Z,13.70
2023-01-08T15:24:01.660Z,13.30
2023-01-08T15:26:28.447Z,12.90
2023-01-08T15:28:58.872Z,10.50
2023-01-08T15:31:53.278Z,11.50
2023-01-08T15:34:20.427Z,14.00
2023-01-08T15:36:47.921Z,13.40
2023-01-08T15:39:14.690Z,14.90
2023-01-08T15:42:00.133Z,12.20
2023-01-08T15:44:27.051Z,13.30
2023-01-08T15:46:54.473Z,13.10
2023-01-08T15:49:21.672Z,13.00
2023-01-08T15:51:49.253Z,12.90
2023-01-08T15:54:16.730Z,12.10
2023-01-08T15:56:43.712Z,11.50
2023-01-08T15:59:11.823Z,13.80
2023-01-08T16:01:38.666Z,15.30
2023-01-08T16:04:05.584Z,13.10
2023-01-08T16:06:32.543Z,15.60
2023-01-08T16:09:00.558Z,14.80
2023-01-08T16:11:27.546Z,13.90
2023-01-08T16:13:54.768Z,14.40
2023-01-08T16:16:22.274Z,15.80
2023-01-08T16:18:49.410Z,18.00
2023-01-08T16:21:16.336Z,17.60
2023-01-08T16:23:43.112Z,15.10
2023-01-08T16:26:12.025Z,14.60
2023-01-08T16:28:39.314Z,15.70
2023-01-08T16:31:07.098Z,16.40
2023-01-08T16:33:34.215Z,14.90
2023-01-08T16:36:05.885Z,15.10
2023-01-08T16:38:33.595Z,13.20
2023-01-08T16:41:00.727Z,16.10
2023-01-08T16:43:28.605Z,18.00
2023-01-08T16:45:55.675Z,15.20
2023-01-08T16:48:23.115Z,13.90
2023-01-08T16:50:49.930Z,18.50
2023-01-08T16:53:17.919Z,17.80
2023-01-08T16:55:44.768Z,16.20
2023-01-08T16:58:11.959Z,14.90
2023-01-08T17:00:39.208Z,15.10
2023-01-08T17:03:06.521Z,18.20
2023-01-08T17:05:35.577Z,16.40
2023-01-08T17:08:02.374Z,17.30
2023-01-08T17:10:29.155Z,13.40
2023-01-08T17:12:55.987Z,17.00
2023-01-08T17:15:22.802Z,18.40
2023-01-08T17:17:49.543Z,20.20
2023-01-08T17:20:16.772Z,19.70
2023-01-08T17:22:43.519Z,17.60
2023-01-08T17:25:10.265Z,16.50
2023-01-08T17:27:37.317Z,18.60
2023-01-08T17:30:05.050Z,18.90
2023-01-08T17:32:32.321Z,17.10
2023-01-08T17:34:59.276Z,15.10
2023-01-08T17:37:26.044Z,15.90
2023-01-08T17:39:53.052Z,19.50
2023-01-08T17:42:27.064Z,16.80
2023-01-08T17:44:56.065Z,16.60
2023-01-08T17:47:24.107Z,16.80
2023-01-08T17:50:02.434Z,19.50
2023-01-08T17:52:29.393Z,18.60
2023-01-08T17:54:56.435Z,18.60
2023-01-08T17:57:23.389Z,17.20
2023-01-08T19:50:54.225Z,22.30
2023-01-08T19:53:30.519Z,20.70
2023-01-08T19:56:02.999Z,19.30
2023-01-08T19:58:33.688Z,16.60
2023-01-08T20:01:05.213Z,13.60
2023-01-08T20:03:33.774Z,18.70
2023-01-08T20:06:08.648Z,14.10
2023-01-08T20:08:38.839Z,15.10
2023-01-08T20:11:10.516Z,15.10
2023-01-08T20:13:42.645Z,19.00
2023-01-08T20:16:13.744Z,15.80
2023-01-08T20:18:41.774Z,15.00
2023-01-08T20:21:17.522Z,17.20
2023-01-08T20:23:45.035Z,14.90
2023-01-08T20:26:16.575Z,13.70
2023-01-08T20:28:47.203Z,14.90
2023-01-08T20:31:42.157Z,16.00
2023-01-08T20:34:14.995Z,14.90
2023-01-08T20:36:48.386Z,15.00
2023-01-08T20:39:19.285Z,17.40
2023-01-08T20:41:55.505Z,17.00
2023-01-08T20:44:30.453Z,10.20
2023-01-08T20:47:05.186Z,14.60
2023-01-08T20:49:33.246Z,14.40
2023-01-08T20:52:00.929Z,14.00
2023-01-08T20:54:31.790Z,13.70
2023-01-08T20:57:00.236Z,12.10
2023-01-08T20:59:27.282Z,12.90
2023-01-08T21:01:56.603Z,11.80
2023-01-08T21:04:23.656Z,10.90
2023-01-08T21:06:51.516Z,12.40
2023-01-08T21:09:19.139Z,12.10
2023-01-08T21:11:50.315Z,12.50
2023-01-08T21:14:19.107Z,12.00
2023-01-08T21:16:46.097Z,11.30
2023-01-08T21:19:14.818Z,11.10
2023-01-08T21:21:42.783Z,11.80
2023-01-08T21:24:11.435Z,9.70
2023-01-08T21:26:39.324Z,9.10
2023-01-08T21:29:06.926Z,8.00
2023-01-08T21:31:36.619Z,9.60
2023-01-08T21:34:04.371Z,10.10
2023-01-08T21:36:32.420Z,9.80
2023-01-08T21:39:00.872Z,10.70
2023-01-08T21:41:48.778Z,10.30
2023-01-08T21:44:41.491Z,10.00
2023-01-08T21:47:11.778Z,9.50
2023-01-08T21:49:41.131Z,8.20
2023-01-08T21:52:26.959Z,10.40
2023-01-08T21:54:55.839Z,6.40
2023-01-08T21:57:22.874Z,10.30
2023-01-08T21:59:51.137Z,9.30
2023-01-08T22:02:20.320Z,7.40
2023-01-08T22:04:47.595Z,8.40
2023-01-08T22:07:16.168Z,11.00
2023-01-08T22:09:45.187Z,9.50
2023-01-08T22:12:15.296Z,10.20
2023-01-08T22:14:42.196Z,8.20
2023-01-08T22:17:11.365Z,10.80
2023-01-08T22:19:39.420Z,11.80
2023-01-08T22:22:10.993Z,10.90
2023-01-08T22:24:40.412Z,8.30
2023-01-08T22:27:07.695Z,8.90
2023-01-08T22:29:38.062Z,7.60
2023-01-08T22:32:07.942Z,12.00
2023-01-08T22:34:36.532Z,11.40
2023-01-08T22:37:04.660Z,10.90
2023-01-08T22:39:31.316Z,10.00
2023-01-08T22:41:58.166Z,7.50
2023-01-08T22:44:26.073Z,9.60
2023-01-08T22:46:53.650Z,9.50
2023-01-08T22:49:21.647Z,7.80
2023-01-08T22:51:49.896Z,10.70
2023-01-08T22:54:18.982Z,9.70
2023-01-08T22:56:48.406Z,12.70
2023-01-08T22:59:18.890Z,11.80
2023-01-08T23:01:45.725Z,8.30
2023-01-08T23:04:14.680Z,9.90
2023-01-08T23:06:42.493Z,12.30
2023-01-08T23:09:09.663Z,10.20
2023-01-08T23:11:36.878Z,11.30
2023-01-08T23:14:03.812Z,10.40
2023-01-08T23:16:31.835Z,9.80
2023-01-08T23:18:59.613Z,11.40
2023-01-08T23:21:27.909Z,9.30
2023-01-08T23:23:55.118Z,9.60
2023-01-08T23:26:27.643Z,8.10
2023-01-08T23:28:55.444Z,10.20
2023-01-08T23:31:31.882Z,9.90
2023-01-08T23:34:02.626Z,8.80
2023-01-08T23:36:48.904Z,10.50
2023-01-08T23:39:32.261Z,9.90
2023-01-08T23:42:03.895Z,9.30
2023-01-08T23:48:03.514Z,8.70
2023-01-08T23:50:32.172Z,9.50
2023-01-08T23:52:59.300Z,11.60
2023-01-08T23:55:26.485Z,10.20
2023-01-08T23:57:53.802Z,8.20
